Terminal Aerodrome Forecast
Issued by NWS Shreveport, LA

Home | Current Version | Previous Version | Text Only | Print | Product List | Glossary On
Versions: 1 2 3 4 5 6 7 8 9 10 11 12 13 14 15 16 17 18 19 20 21 22 23 24
000
FTUS44 KSHV 232000 AAA
TAFELD
TAF AMD
KELD 232047Z 2321/2418 11009G17KT P6SM FEW070
     FM240000 16003KT P6SM SKC
     FM241200 17004KT 5SM BR BKN050
     FM241500 18012G18KT P6SM FEW025 BKN050=

USA.gov is the U.S. government's official web portal to all federal, state and local government web resources and services.